Flight Track Log - Related Links

Times and Time Zones

All times are in EDT time to prevent confusion due to time zone crossing. See the SLI208 flight status page for this flight to view local times or setup timezone preferences in your user account.

Time Position Orientation Groundspeed Altitude Reporting Facility
EDT Latitude Longitude Course Direction KTS MPH feet Rate Location/Type
Sat 10:59:00 PM 21.7176 -100.6326 328° Northwest  Level Estimated
Sat 11:00:00 PM 21.7845 -100.6792 327° Northwest  Level Estimated
Sat 11:01:00 PM 21.8514 -100.7259 327° Northwest  Level Estimated
Sat 11:02:00 PM 21.9182 -100.7726 327° Northwest  Level Estimated
Sat 11:03:00 PM 21.9851 -100.8193 327° Northwest  Level Estimated
Sat 11:04:00 PM 22.0519 -100.8661 327° Northwest  Level Estimated
Sat 11:05:00 PM 22.1187 -100.9130 327° Northwest  Level Estimated
Sat 11:06:00 PM 22.1855 -100.9598 327° Northwest  Level Estimated
Sat 11:07:00 PM 22.2523 -101.0068 327° Northwest  Level Estimated
Sat 11:08:00 PM 22.3191 -101.0537 327° Northwest  Level Estimated
Sat 11:09:00 PM 22.3858 -101.1008 327° Northwest  Level Estimated
Sat 11:10:00 PM 22.4526 -101.1478 327° Northwest  Level Estimated
Sat 11:11:00 PM 22.5193 -101.1949 327° Northwest  Level Estimated
Sat 11:12:00 PM 22.5860 -101.2421 327° Northwest  Level Estimated
Sat 11:13:00 PM 22.6527 -101.2893 327° Northwest  Level Estimated
Sat 11:14:00 PM 22.7194 -101.3365 327° Northwest  Level Estimated
Sat 11:15:00 PM 22.7861 -101.3838 327° Northwest  Level Estimated
Sat 11:16:00 PM 22.8528 -101.4312 327° Northwest  Level Estimated
Sat 11:17:00 PM 22.9194 -101.4786 327° Northwest  Level Estimated
Sat 11:18:00 PM 22.9860 -101.5260 327° Northwest  Level Estimated
Sat 11:19:00 PM 23.0527 -101.5735 327° Northwest  Level Estimated
Sat 11:20:00 PM 23.1193 -101.6210 327° Northwest  Level Estimated
Sat 11:21:00 PM 23.1859 -101.6686 327° Northwest  Level Estimated
Sat 11:22:00 PM 23.2525 -101.7162 327° Northwest  Level Estimated
Sat 11:23:00 PM 23.3190 -101.7639 327° Northwest  Level Estimated
Sat 11:24:00 PM 23.3856 -101.8116 327° Northwest  Level Estimated
Sat 11:25:00 PM 23.4521 -101.8593 327° Northwest  Level Estimated
Sat 11:26:00 PM 23.5186 -101.9072 327° Northwest  Level Estimated
Sat 11:27:00 PM 23.5851 -101.9550 327° Northwest  Level Estimated
Sat 11:28:00 PM 23.6516 -102.0029 327° Northwest  Level Estimated
Sat 11:29:00 PM 23.7181 -102.0509 327° Northwest  Level Estimated
Sat 11:30:00 PM 23.7846 -102.0989 327° Northwest  Level Estimated
Sat 11:31:00 PM 23.8510 -102.1469 327° Northwest  Level Estimated
Sat 11:32:00 PM 23.9174 -102.1951 327° Northwest  Level Estimated
Sat 11:33:00 PM 23.9839 -102.2432 326° Northwest  Level Estimated
Sat 11:34:00 PM 24.0503 -102.2914 326° Northwest  Level Estimated
Sat 11:35:00 PM 24.1166 -102.3397 326° Northwest  Level Estimated
Sat 11:36:00 PM 24.1830 -102.3880 326° Northwest  Level Estimated
Sat 11:37:00 PM 24.2494 -102.4363 326° Northwest  Level Estimated
Sat 11:38:00 PM 24.3157 -102.4847 326° Northwest  Level Estimated
Sat 11:39:00 PM 24.3820 -102.5332 326° Northwest  Level Estimated
Sat 11:40:00 PM 24.4484 -102.5817 326° Northwest  Level Estimated
Sat 11:41:00 PM 24.5147 -102.6302 326° Northwest  Level Estimated
Sat 11:42:00 PM 24.5809 -102.6789 326° Northwest  Level Estimated
Sat 11:43:00 PM 24.6472 -102.7275 326° Northwest  Level Estimated
Sat 11:44:00 PM 24.7134 -102.7762 326° Northwest  Level Estimated
Sat 11:45:00 PM 24.7797 -102.8250 326° Northwest  Level Estimated
Sat 11:46:00 PM 24.8459 -102.8738 326° Northwest  Level Estimated
Sat 11:47:00 PM 24.9121 -102.9227 326° Northwest  Level Estimated
Sat 11:48:00 PM 24.9783 -102.9716 326° Northwest  Level Estimated
Sat 11:49:00 PM 25.0445 -103.0206 326° Northwest  Level Estimated
Sat 11:50:00 PM 25.1106 -103.0696 326° Northwest  Level Estimated
Sat 11:51:00 PM 25.1767 -103.1187 326° Northwest  Level Estimated
Sat 11:52:00 PM 25.2429 -103.1678 326° Northwest  Level Estimated
Sat 11:53:00 PM 25.3090 -103.2170 326° Northwest  Level Estimated
Sat 11:54:00 PM 25.3750 -103.2662 326° Northwest  Level Estimated
Sat 11:55:00 PM 25.4411 -103.3155 326° Northwest  Level Estimated
Sat 11:56:00 PM 25.5072 -103.3649 326° Northwest  Level Estimated
Sat 11:57:00 PM 25.5683 -103.4106 326° Northwest  Level Estimated
Sat 11:58:00 PM 25.5683 -103.4106 234° Southwest  Level Estimated
Sat 11:59:00 PM 25.5683 -103.4106 234° Southwest  Level Estimated
Sun 12:00:00 AM 25.5683 -103.4106 234° Southwest  Level Estimated
Sun 12:01:00 AM 25.5683 -103.4106 234° Southwest  Level Estimated
Sun 12:02:00 AM 25.5683 -103.4106 234° Southwest  Level Estimated
Sun 12:03:00 AM 25.5683 -103.4106 234° Southwest  Level Estimated
Sun 12:04:00 AM 25.5683 -103.4106 234° Southwest  Level Estimated
Sun 12:05:00 AM 25.5683 -103.4106 234° Southwest  Level Estimated
Sun 12:06:00 AM 25.5683 -103.4106 234° Southwest  Level Estimated
Sun 12:07:00 AM 25.5683 -103.4106 234° Southwest  Level Estimated
Sun 12:08:00 AM 25.5683 -103.4106 234° Southwest  Level Estimated
Sun 12:09:00 AM 25.5683 -103.4106 234° Southwest  Level Estimated
Sun 12:10:00 AM 25.5683 -103.4106 234° Southwest  Level Estimated
Sun 12:11:00 AM 25.5683 -103.4106 234° Southwest  Level Estimated
Sun 12:12:00 AM 25.5683 -103.4106 234° Southwest  Level Estimated
Sun 12:13:00 AM 25.5683 -103.4106 234° Southwest  Level Estimated

Login

Don't have an account? Register now (free) for customized features, flight alerts, and more!